EEKA

Kärdla Airport

Kärdla, Estonia
METAR EEKA 160850Z 17006KT 9999 FEW015CB SCT035 02/01 Q0997
Observed Flight Rules
Dec-16 @ 08:50 UTC (2 hours ago) Visual Flight Rules
Wind Visibility Clouds
170° at 6 knots 10,000+ meters
  • Few at 1,500' AGL
  • Scattered at 3,500' AGL
Temperatures Readings
Current 2°C / 36°F
Dewpoint 1°C / 34°F
Humidity 93%
Altimeter 29.44" Hg
Pressure 997 hPa
Elevation 4
METAR EEKA 160850Z 17006KT 9999 FEW015CB SCT035 02/01 Q0997
Observed Flight Rules
Dec-16 @ 08:50 UTC
(2 hours ago)
VFR
Wind Visibility
170° at 6 knots 10,000+ meters
Clouds
  • Few at 1,500' AGL
  • Scattered at 3,500' AGL
Temperature Dewpoint
2°C / 36°F 1°C / 34°F
Humidity Altimeter Pressure
93% 29.44" Hg 997 hPa